createdAt,value
2018-03-25T00:01:30.436Z,42.20
2018-03-25T00:03:58.207Z,42.40
2018-03-25T00:06:25.942Z,42.50
2018-03-25T00:08:53.686Z,42.00
2018-03-25T00:11:22.206Z,41.30
2018-03-25T00:13:49.946Z,41.20
2018-03-25T00:16:18.461Z,40.60
2018-03-25T00:18:46.217Z,40.60
2018-03-25T00:21:13.959Z,40.40
2018-03-25T00:23:41.712Z,40.60
2018-03-25T00:26:10.256Z,39.10
2018-03-25T00:28:38.003Z,39.10
2018-03-25T00:31:05.770Z,39.30
2018-03-25T00:33:33.527Z,38.60
2018-03-25T00:36:01.262Z,38.80
2018-03-25T00:38:29.055Z,38.90
2018-03-25T00:40:56.800Z,38.80
2018-03-25T00:43:24.552Z,39.00
2018-03-25T00:45:52.312Z,39.70
2018-03-25T00:48:20.823Z,39.20
2018-03-25T00:50:48.580Z,39.30
2018-03-25T00:55:51.706Z,39.40
2018-03-25T00:58:19.496Z,39.60
2018-03-25T01:00:47.278Z,39.90
2018-03-25T01:03:15.818Z,40.40
2018-03-25T01:05:43.550Z,40.40
2018-03-25T01:08:11.260Z,40.40
2018-03-25T01:10:38.981Z,40.50
2018-03-25T01:13:06.774Z,40.50
2018-03-25T01:15:46.351Z,40.70
2018-03-25T01:18:14.842Z,41.30
2018-03-25T01:20:43.345Z,41.60
2018-03-25T01:23:11.053Z,41.60
2018-03-25T01:25:38.779Z,42.00
2018-03-25T01:28:06.500Z,42.10
2018-03-25T01:30:34.242Z,42.10
2018-03-25T01:33:01.957Z,41.50
2018-03-25T01:35:29.674Z,41.90
2018-03-25T01:37:57.400Z,41.10
2018-03-25T01:40:25.130Z,40.30
2018-03-25T01:42:53.590Z,40.10
2018-03-25T01:45:21.304Z,40.10
2018-03-25T01:47:49.005Z,40.00
2018-03-25T01:50:16.714Z,39.80
2018-03-25T01:52:44.439Z,39.90
2018-03-25T01:55:12.158Z,39.90
2018-03-25T01:57:39.871Z,40.10
2018-03-25T02:00:07.630Z,40.00
2018-03-25T02:02:35.399Z,40.50
2018-03-25T02:05:03.167Z,40.00
2018-03-25T02:07:31.645Z,40.00
2018-03-25T02:09:59.353Z,39.90
2018-03-25T02:12:27.067Z,40.00
2018-03-25T02:14:54.786Z,40.00
2018-03-25T02:17:22.496Z,40.10
2018-03-25T02:19:50.978Z,39.50
2018-03-25T02:22:19.454Z,39.50
2018-03-25T02:24:47.162Z,39.50
2018-03-25T02:27:14.922Z,39.50
2018-03-25T02:29:43.393Z,39.90
2018-03-25T02:32:11.162Z,39.60
2018-03-25T02:34:38.878Z,39.70
2018-03-25T02:37:06.601Z,40.00
2018-03-25T02:39:34.331Z,40.00
2018-03-25T03:05:39.401Z,42.70
2018-03-25T03:08:29.688Z,43.50
2018-03-25T03:11:25.288Z,44.10
2018-03-25T03:22:44.799Z,45.90
2018-03-25T03:31:08.505Z,46.30
2018-03-25T03:56:46.505Z,44.40
2018-03-25T03:59:24.647Z,43.50
2018-03-25T04:02:09.584Z,43.50
2018-03-25T04:10:57.381Z,42.70
2018-03-25T04:13:44.943Z,42.40
2018-03-25T04:28:05.005Z,43.40
2018-03-25T04:33:40.917Z,43.60
2018-03-25T04:42:03.869Z,43.60
2018-03-25T04:44:45.453Z,42.90
2018-03-25T04:47:26.885Z,42.10
2018-03-25T04:50:15.605Z,41.70
2018-03-25T04:52:56.275Z,41.30
2018-03-25T05:09:24.167Z,41.20
2018-03-25T05:12:06.221Z,41.20
2018-03-25T05:20:19.904Z,41.60
2018-03-25T05:22:49.926Z,41.80
2018-03-25T05:28:09.199Z,41.70
2018-03-25T05:33:44.742Z,41.50
2018-03-25T05:36:18.940Z,41.40
2018-03-25T05:38:53.586Z,41.00
2018-03-25T05:41:41.343Z,40.50
2018-03-25T05:44:26.428Z,40.30
2018-03-25T05:47:20.442Z,41.00
2018-03-25T05:49:57.058Z,41.40
2018-03-25T05:55:12.104Z,40.70
2018-03-25T05:57:39.903Z,40.50
2018-03-25T06:00:07.708Z,40.50
2018-03-25T06:02:35.456Z,40.30
2018-03-25T06:05:03.203Z,40.30
2018-03-25T06:07:31.833Z,40.80
2018-03-25T06:09:59.570Z,41.10
2018-03-25T06:12:31.166Z,41.50
2018-03-25T06:15:11.344Z,41.50
2018-03-25T06:17:44.443Z,41.50
2018-03-25T06:20:13.646Z,41.40
2018-03-25T06:22:46.139Z,41.70
2018-03-25T06:25:23.536Z,41.80
2018-03-25T06:30:38.378Z,41.80
2018-03-25T06:35:55.204Z,42.10
2018-03-25T06:38:31.813Z,42.20
2018-03-25T06:41:10.330Z,42.30
2018-03-25T06:46:42.409Z,41.90
2018-03-25T06:51:55.987Z,41.30
2018-03-25T06:54:23.819Z,42.00
2018-03-25T06:56:51.534Z,41.10
2018-03-25T06:59:19.386Z,41.10
2018-03-25T07:01:47.122Z,41.20
2018-03-25T07:04:15.612Z,41.60
2018-03-25T07:06:44.098Z,41.60
2018-03-25T07:09:12.577Z,41.70
2018-03-25T07:11:41.075Z,41.80
2018-03-25T07:14:08.823Z,41.80
2018-03-25T07:16:37.326Z,42.10
2018-03-25T07:19:05.054Z,42.10
2018-03-25T07:21:33.546Z,42.30
2018-03-25T07:24:01.339Z,42.30
2018-03-25T07:26:29.065Z,42.00
2018-03-25T07:28:57.549Z,41.60
2018-03-25T07:31:26.039Z,41.50
2018-03-25T07:33:54.529Z,41.40
2018-03-25T07:36:22.265Z,41.40
2018-03-25T07:38:50.762Z,41.10
2018-03-25T07:41:19.254Z,41.40
2018-03-25T07:43:47.006Z,41.40
2018-03-25T07:46:15.503Z,41.60
2018-03-25T07:48:43.226Z,41.60
2018-03-25T07:51:10.998Z,42.10
2018-03-25T07:53:39.491Z,42.40
2018-03-25T07:56:07.989Z,43.00
2018-03-25T07:58:35.726Z,42.40
2018-03-25T08:01:04.226Z,42.70
2018-03-25T08:03:31.961Z,42.70
2018-03-25T08:05:59.681Z,43.10
2018-03-25T08:08:27.403Z,44.00
2018-03-25T08:10:55.898Z,43.70
2018-03-25T08:13:23.626Z,43.70
2018-03-25T08:15:51.348Z,43.60
2018-03-25T08:18:19.074Z,43.70
2018-03-25T08:20:49.232Z,43.60
2018-03-25T08:23:16.967Z,43.60
2018-03-25T08:25:44.701Z,42.70
2018-03-25T08:28:12.651Z,43.00
2018-03-25T08:30:40.479Z,42.60
2018-03-25T08:33:08.270Z,43.00
2018-03-25T08:35:36.014Z,42.60
2018-03-25T08:38:03.766Z,42.50
2018-03-25T08:40:31.605Z,43.50
2018-03-25T08:42:59.363Z,43.00
2018-03-25T08:45:27.153Z,42.80
2018-03-25T08:47:55.660Z,43.30
2018-03-25T08:50:23.398Z,43.30
2018-03-25T08:52:51.142Z,43.20
2018-03-25T08:55:19.639Z,44.80
2018-03-25T08:57:47.395Z,44.80
2018-03-25T09:00:15.970Z,44.30
2018-03-25T09:02:44.493Z,43.30
2018-03-25T09:05:12.335Z,43.20
2018-03-25T09:07:40.099Z,43.90
2018-03-25T09:10:07.848Z,44.20
2018-03-25T09:12:36.439Z,43.10
2018-03-25T09:15:04.660Z,43.10
2018-03-25T09:17:32.435Z,42.90
2018-03-25T09:20:00.182Z,43.00
2018-03-25T09:22:27.890Z,43.60
2018-03-25T09:24:56.461Z,42.10
2018-03-25T09:27:28.742Z,42.10
2018-03-25T09:29:57.469Z,42.40
2018-03-25T09:32:25.199Z,42.30
2018-03-25T09:34:53.704Z,42.10
2018-03-25T09:37:21.484Z,42.10
2018-03-25T09:39:49.238Z,41.80
2018-03-25T09:42:17.023Z,40.50
2018-03-25T09:44:44.934Z,39.90
2018-03-25T09:47:13.561Z,39.80
2018-03-25T09:49:41.347Z,39.80
2018-03-25T09:52:09.092Z,39.20
2018-03-25T09:54:36.869Z,39.10
2018-03-25T09:57:04.667Z,38.90
2018-03-25T09:59:33.214Z,37.80
2018-03-25T10:02:04.869Z,37.80
2018-03-25T10:04:32.586Z,37.90
2018-03-25T10:07:00.327Z,37.80
2018-03-25T10:09:28.066Z,37.40
2018-03-25T10:11:56.627Z,36.00
2018-03-25T10:14:26.231Z,36.00
2018-03-25T10:16:54.023Z,35.90
2018-03-25T10:19:21.784Z,36.60
2018-03-25T10:24:26.979Z,35.60
2018-03-25T10:26:54.949Z,35.60
2018-03-25T10:29:23.527Z,35.00
2018-03-25T10:31:52.017Z,34.70
2018-03-25T10:34:19.760Z,34.70
2018-03-25T10:36:47.483Z,35.30
2018-03-25T10:39:15.246Z,34.70
2018-03-25T10:41:42.989Z,35.30
2018-03-25T10:44:10.730Z,34.20
2018-03-25T10:46:38.481Z,34.00
2018-03-25T10:49:06.989Z,34.50
2018-03-25T10:51:34.718Z,33.80
2018-03-25T10:54:03.763Z,32.70
2018-03-25T10:56:32.281Z,32.00
2018-03-25T10:59:00.001Z,32.10
2018-03-25T11:01:27.726Z,32.10
2018-03-25T11:03:56.215Z,32.50
2018-03-25T11:06:24.698Z,31.60
2018-03-25T11:08:53.189Z,31.50
2018-03-25T11:11:21.666Z,31.80
2018-03-25T11:13:50.146Z,32.00
2018-03-25T11:16:19.594Z,32.50
2018-03-25T11:18:47.351Z,32.50
2018-03-25T11:21:15.103Z,32.20
2018-03-25T11:23:42.906Z,32.10
2018-03-25T11:26:10.630Z,32.20
2018-03-25T11:28:38.380Z,32.50
2018-03-25T11:31:06.262Z,32.20
2018-03-25T11:33:34.118Z,31.90
2018-03-25T11:36:01.885Z,31.50
2018-03-25T11:38:29.614Z,31.80
2018-03-25T11:40:58.113Z,32.80
2018-03-25T11:43:25.835Z,32.80
2018-03-25T11:45:53.562Z,33.10
2018-03-25T11:48:21.289Z,33.00
2018-03-25T11:50:49.785Z,34.70
2018-03-25T11:53:17.575Z,34.80
2018-03-25T11:55:45.307Z,38.70
2018-03-25T11:58:13.789Z,41.60
2018-03-25T12:00:41.538Z,41.60
2018-03-25T12:03:10.062Z,43.20
2018-03-25T12:05:37.798Z,43.20
2018-03-25T12:08:06.298Z,44.00
2018-03-25T12:10:34.040Z,43.90
2018-03-25T12:13:02.641Z,44.60
2018-03-25T12:15:30.378Z,44.60
2018-03-25T12:17:58.898Z,45.00
2018-03-25T12:20:26.652Z,45.00
2018-03-25T12:22:54.383Z,44.90
2018-03-25T12:25:22.891Z,45.30
2018-03-25T12:27:50.646Z,45.30
2018-03-25T12:30:18.376Z,43.80
2018-03-25T12:32:46.131Z,43.60
2018-03-25T12:35:13.865Z,43.30
2018-03-25T12:37:41.611Z,43.00
2018-03-25T12:40:09.429Z,43.20
2018-03-25T12:42:37.164Z,43.60
2018-03-25T12:45:04.913Z,42.60
2018-03-25T12:47:32.687Z,42.40
2018-03-25T12:50:00.433Z,42.30
2018-03-25T12:52:28.177Z,43.20
2018-03-25T12:54:55.965Z,45.10
2018-03-25T12:57:24.670Z,48.90
2018-03-25T12:59:52.399Z,50.70
2018-03-25T13:02:20.172Z,52.30
2018-03-25T13:04:47.925Z,52.60
2018-03-25T13:07:15.654Z,53.40
2018-03-25T13:09:43.413Z,54.30
2018-03-25T13:12:11.145Z,53.40
2018-03-25T13:48:18.761Z,60.10
2018-03-25T13:50:51.261Z,59.60
2018-03-25T13:56:03.985Z,58.70
2018-03-25T14:01:46.313Z,60.80
2018-03-25T14:04:37.067Z,63.60
2018-03-25T14:12:55.546Z,66.70
2018-03-25T14:15:56.887Z,66.70
2018-03-25T14:25:11.147Z,68.20
2018-03-25T14:32:18.908Z,66.90
2018-03-25T14:34:47.394Z,65.20
2018-03-25T14:37:16.823Z,64.60
2018-03-25T14:39:44.681Z,64.60
2018-03-25T14:42:13.321Z,64.90
2018-03-25T14:44:41.220Z,64.10
2018-03-25T14:47:10.745Z,65.20
2018-03-25T14:49:38.664Z,64.70
2018-03-25T14:52:07.255Z,67.90
2018-03-25T14:54:38.198Z,67.10
2018-03-25T14:57:06.317Z,67.20
2018-03-25T15:06:28.516Z,75.80
2018-03-25T15:17:59.119Z,88.30
2018-03-25T15:23:22.275Z,90.50
2018-03-25T15:25:50.050Z,91.00
2018-03-25T15:28:17.843Z,90.70
2018-03-25T15:30:46.345Z,90.10
2018-03-25T15:33:14.237Z,90.00
2018-03-25T15:35:41.974Z,90.00
2018-03-25T15:38:09.873Z,90.20
2018-03-25T15:40:37.630Z,91.20
2018-03-25T15:43:05.403Z,90.80
2018-03-25T15:45:33.248Z,89.10
2018-03-25T15:48:00.974Z,89.40
2018-03-25T15:50:43.066Z,88.90
2018-03-25T15:56:24.596Z,89.30
2018-03-25T15:59:05.954Z,90.10
2018-03-25T16:01:55.501Z,90.10
2018-03-25T16:11:05.500Z,84.50
2018-03-25T16:23:29.326Z,81.90
2018-03-25T16:32:59.892Z,84.00
2018-03-25T16:43:00.254Z,89.30
2018-03-25T16:49:27.286Z,89.70
2018-03-25T16:52:48.470Z,87.70
2018-03-25T17:18:57.970Z,71.70
2018-03-25T17:24:49.962Z,68.00
2018-03-25T17:27:28.938Z,65.20
2018-03-25T17:47:27.606Z,66.90
2018-03-25T18:21:54.866Z,70.40
2018-03-25T18:30:46.694Z,71.20
2018-03-25T18:48:36.470Z,67.50
2018-03-25T18:59:59.611Z,68.00
2018-03-25T19:27:18.997Z,68.60
2018-03-25T19:29:46.971Z,67.50
2018-03-25T19:36:10.975Z,68.30
2018-03-25T20:00:47.409Z,68.50
2018-03-25T20:19:32.744Z,68.20
2018-03-25T20:31:38.694Z,48.90
2018-03-25T20:40:51.305Z,43.20
2018-03-25T21:00:52.161Z,42.40
2018-03-25T21:11:46.813Z,40.90
2018-03-25T21:22:46.984Z,44.00
2018-03-25T21:28:09.449Z,44.00
2018-03-25T21:36:29.565Z,44.90
2018-03-25T21:39:02.148Z,44.50
2018-03-25T21:41:36.572Z,44.60
2018-03-25T21:47:05.376Z,45.90
2018-03-25T21:55:53.897Z,47.10
2018-03-25T21:58:44.160Z,45.90
2018-03-25T22:16:07.467Z,48.30
2018-03-25T22:19:00.466Z,48.40
2018-03-25T22:24:18.224Z,48.80
2018-03-25T22:29:43.502Z,48.30
2018-03-25T22:43:51.398Z,47.50
2018-03-25T22:52:04.987Z,46.90
2018-03-25T22:54:54.253Z,46.10
2018-03-25T22:57:36.742Z,46.90
2018-03-25T23:03:21.737Z,46.50
2018-03-25T23:06:14.295Z,46.50
2018-03-25T23:09:05.376Z,46.80
2018-03-25T23:11:48.536Z,46.50
2018-03-25T23:14:23.626Z,46.30
2018-03-25T23:17:03.033Z,46.20
2018-03-25T23:19:42.266Z,46.00
2018-03-25T23:22:36.115Z,46.30
2018-03-25T23:25:26.299Z,46.20
2018-03-25T23:39:50.972Z,44.50
2018-03-25T23:45:20.702Z,43.90
2018-03-25T23:48:13.094Z,42.80
2018-03-25T23:50:49.166Z,41.20
2018-03-25T23:53:39.418Z,41.30
2018-03-25T23:56:14.973Z,41.60
